Time;durP1;ratioP1;P1;durP2;ratioP2;P2;SDS_P1;SDS_P2;PMS_P1;PMS_P2;Temp;Humidity;BMP_temperature;BMP_pressure;BME280_temperature;BME280_humidity;BME280_pressure;Samples;Min_cycle;Max_cycle;Signal;HPM_P1;HPM_P2
2024/02/28 00:02:14;;;;;;;35.40;16.70;;;;;;;3.16;100.00;102032.97;5253275;28;20033;-73
2024/02/28 00:04:45;;;;;;;38.72;17.17;;;;;;;3.14;100.00;102032.22;5253728;28;20499;-73
2024/02/28 00:07:15;;;;;;;34.13;16.52;;;;;;;3.12;100.00;102028.81;5253548;28;20393;-73
2024/02/28 00:09:45;;;;;;;34.03;15.35;;;;;;;3.10;100.00;102028.88;5258262;28;20467;-73
2024/02/28 00:12:16;;;;;;;38.33;19.10;;;;;;;3.10;100.00;102031.53;5252379;28;20029;-73
2024/02/28 00:14:46;;;;;;;54.03;24.73;;;;;;;3.15;100.00;102030.44;5257067;28;20069;-72
2024/02/28 00:17:17;;;;;;;49.53;21.00;;;;;;;3.25;100.00;102035.09;5254826;28;20039;-73
2024/02/28 00:19:47;;;;;;;46.72;21.80;;;;;;;3.31;100.00;102017.97;5255499;28;20027;-73
2024/02/28 00:22:18;;;;;;;48.58;22.30;;;;;;;3.29;100.00;102020.72;5255094;28;20025;-73
2024/02/28 00:24:49;;;;;;;50.20;21.85;;;;;;;3.26;100.00;102017.38;5255382;28;20020;-73
2024/02/28 00:27:19;;;;;;;50.10;22.75;;;;;;;3.20;100.00;102009.78;5251753;28;20417;-72
2024/02/28 00:29:50;;;;;;;48.65;21.48;;;;;;;3.16;100.00;102011.75;5248958;28;20024;-73
2024/02/28 00:32:21;;;;;;;46.05;20.55;;;;;;;3.10;100.00;102012.97;5247645;28;20047;-73
2024/02/28 00:34:51;;;;;;;54.90;22.00;;;;;;;3.05;100.00;102016.84;5252623;28;20385;-73
2024/02/28 00:37:22;;;;;;;43.28;18.67;;;;;;;2.99;100.00;102022.50;5252790;28;20033;-73
2024/02/28 00:39:53;;;;;;;40.78;18.33;;;;;;;2.94;100.00;102022.78;5258307;28;20031;-73
2024/02/28 00:42:24;;;;;;;38.97;17.67;;;;;;;2.90;100.00;102023.88;5244661;28;20036;-73
2024/02/28 00:44:54;;;;;;;36.97;17.05;;;;;;;2.85;100.00;102024.16;5249178;28;20024;-73
2024/02/28 00:47:25;;;;;;;40.10;18.77;;;;;;;2.82;100.00;102024.34;5250499;28;20035;-73
2024/02/28 00:49:56;;;;;;;37.08;17.05;;;;;;;2.78;100.00;102021.94;5257387;28;20043;-73
2024/02/28 00:52:26;;;;;;;34.97;15.40;;;;;;;2.75;100.00;102030.91;5249977;28;20061;-73
2024/02/28 00:54:57;;;;;;;38.92;18.92;;;;;;;2.80;100.00;102023.56;5256208;28;20032;-74
2024/02/28 00:57:27;;;;;;;46.67;19.77;;;;;;;2.82;100.00;102020.84;5253508;28;20020;-73
2024/02/28 00:59:57;;;;;;;38.45;18.42;;;;;;;2.80;100.00;102015.59;5254321;28;20023;-73
2024/02/28 01:02:28;;;;;;;41.53;18.50;;;;;;;2.75;100.00;102020.31;5239748;28;20075;-73
2024/02/28 01:04:58;;;;;;;49.75;21.48;;;;;;;2.76;100.00;102018.50;5248225;28;20028;-73
2024/02/28 01:07:29;;;;;;;41.92;18.60;;;;;;;2.80;100.00;102014.75;5244928;28;20119;-73
2024/02/28 01:09:59;;;;;;;43.42;20.92;;;;;;;2.81;100.00;102012.03;5248429;28;20163;-73
2024/02/28 01:12:30;;;;;;;41.20;20.90;;;;;;;2.83;100.00;102014.59;5245809;28;20024;-73
2024/02/28 01:15:00;;;;;;;38.92;17.00;;;;;;;2.75;100.00;102015.00;5245066;28;20044;-73
2024/02/28 01:17:31;;;;;;;37.40;19.25;;;;;;;2.64;100.00;102016.56;5248111;28;20085;-73
2024/02/28 01:20:01;;;;;;;39.22;19.77;;;;;;;2.55;100.00;102015.28;5248968;28;20115;-73
2024/02/28 01:22:32;;;;;;;39.78;18.42;;;;;;;2.46;100.00;102002.53;5244754;28;20031;-73
2024/02/28 01:25:02;;;;;;;44.92;20.65;;;;;;;2.40;100.00;102005.53;5247898;28;20039;-73
2024/02/28 01:27:33;;;;;;;52.38;22.45;;;;;;;2.34;100.00;102009.41;5244967;28;20024;-73
2024/02/28 01:30:04;;;;;;;46.90;21.48;;;;;;;2.37;100.00;102008.38;5243951;28;20021;-73
2024/02/28 01:32:34;;;;;;;51.40;22.35;;;;;;;2.46;100.00;102008.72;5248583;28;20039;-73
2024/02/28 01:35:05;;;;;;;51.55;22.38;;;;;;;2.52;100.00;102008.38;5244279;28;20043;-73
2024/02/28 01:37:36;;;;;;;48.15;21.75;;;;;;;2.56;100.00;101995.78;5260400;28;20028;-73
2024/02/28 01:40:07;;;;;;;50.35;21.48;;;;;;;2.59;100.00;102004.44;5244323;28;20082;-74
2024/02/28 01:42:37;;;;;;;43.65;20.23;;;;;;;2.63;100.00;101998.97;5240512;28;20024;-73
2024/02/28 01:45:13;;;;;;;45.45;20.92;;;;;;;2.66;100.00;101999.66;5247398;28;20027;-74
2024/02/28 01:47:43;;;;;;;50.83;19.33;;;;;;;2.69;100.00;102001.25;5248515;28;20050;-73
2024/02/28 01:50:14;;;;;;;50.42;21.08;;;;;;;2.69;100.00;102003.91;5240621;28;20009;-74
2024/02/28 01:52:44;;;;;;;42.05;19.10;;;;;;;2.73;100.00;102011.59;5248057;28;20028;-73
2024/02/28 01:55:15;;;;;;;46.25;20.80;;;;;;;2.72;100.00;102020.50;5243602;28;20028;-73
2024/02/28 01:57:45;;;;;;;46.92;21.77;;;;;;;2.76;100.00;102022.03;5244320;28;20066;-73
2024/02/28 02:00:17;;;;;;;47.17;21.73;;;;;;;2.80;100.00;102018.25;5244381;28;20030;-73
2024/02/28 02:02:48;;;;;;;48.88;21.48;;;;;;;2.80;100.00;102009.44;5243200;28;20071;-73
2024/02/28 02:05:20;;;;;;;41.30;19.27;;;;;;;2.79;100.00;102021.84;5248509;28;20044;-73
2024/02/28 02:07:51;;;;;;;46.42;20.13;;;;;;;2.75;100.00;102014.16;5248634;28;20052;-73
2024/02/28 02:10:21;;;;;;;44.20;20.38;;;;;;;2.69;100.00;102004.78;5245139;28;20502;-73
2024/02/28 02:12:52;;;;;;;50.60;20.92;;;;;;;2.69;100.00;102012.72;5244649;28;20106;-73
2024/02/28 02:15:22;;;;;;;48.92;20.85;;;;;;;2.70;100.00;102011.78;5242134;28;20025;-73
2024/02/28 02:17:53;;;;;;;43.03;18.55;;;;;;;2.59;100.00;102011.53;5252563;28;20031;-75
2024/02/28 02:20:26;;;;;;;50.45;19.90;;;;;;;2.50;100.00;102015.53;5239359;28;20029;-74
2024/02/28 02:22:57;;;;;;;43.47;19.42;;;;;;;2.47;100.00;102012.22;5237736;28;20023;-74
2024/02/28 02:25:27;;;;;;;44.13;19.45;;;;;;;2.32;100.00;102009.50;5240972;28;20032;-74
2024/02/28 02:27:57;;;;;;;41.55;18.08;;;;;;;2.14;100.00;102015.78;5248141;28;20478;-74
2024/02/28 02:30:28;;;;;;;43.50;17.60;;;;;;;2.00;100.00;102016.53;5244439;28;20486;-74
2024/02/28 02:32:58;;;;;;;40.67;17.23;;;;;;;1.91;100.00;102019.69;5237005;28;20032;-75
2024/02/28 02:35:29;;;;;;;36.13;17.17;;;;;;;1.83;100.00;102035.09;5244628;28;20035;-74
2024/02/28 02:38:00;;;;;;;41.25;18.77;;;;;;;1.78;100.00;102032.69;5245042;28;20021;-74
2024/02/28 02:40:30;;;;;;;44.00;19.27;;;;;;;1.73;100.00;102040.03;5248626;28;20024;-74
2024/02/28 02:43:01;;;;;;;39.65;18.38;;;;;;;1.70;100.00;102034.88;5241421;28;20059;-74
2024/02/28 02:45:31;;;;;;;43.35;20.15;;;;;;;1.68;100.00;102031.47;5247328;28;20116;-74
2024/02/28 02:48:02;;;;;;;44.50;19.70;;;;;;;1.64;100.00;102037.84;5251942;28;20102;-74
2024/02/28 02:50:32;;;;;;;50.40;21.17;;;;;;;1.64;100.00;102034.34;5247612;28;20029;-74
2024/02/28 02:53:04;;;;;;;43.42;20.15;;;;;;;1.63;100.00;102036.16;5248345;28;20030;-74
2024/02/28 02:55:34;;;;;;;45.08;21.38;;;;;;;1.64;100.00;102029.91;5246456;28;20024;-74
2024/02/28 02:58:05;;;;;;;49.70;19.38;;;;;;;1.65;100.00;102034.25;5245570;28;20016;-74
2024/02/28 03:00:35;;;;;;;41.40;19.13;;;;;;;1.68;100.00;102042.06;5243218;28;20028;-74
2024/02/28 03:03:06;;;;;;;45.80;21.98;;;;;;;1.74;100.00;102039.06;5248371;28;20024;-74
2024/02/28 03:05:37;;;;;;;48.00;20.55;;;;;;;1.73;100.00;102033.88;5254279;28;20021;-74
2024/02/28 03:08:07;;;;;;;42.53;18.85;;;;;;;1.69;100.00;102027.88;5250848;28;20477;-74
2024/02/28 03:10:39;;;;;;;44.35;20.48;;;;;;;1.63;100.00;102020.28;5252269;28;20115;-74
2024/02/28 03:13:10;;;;;;;47.22;20.20;;;;;;;1.57;100.00;102031.19;5237856;28;20032;-73
2024/02/28 03:15:41;;;;;;;55.22;20.17;;;;;;;1.49;100.00;102033.34;5242334;28;20024;-73
2024/02/28 03:18:11;;;;;;;51.78;20.23;;;;;;;1.43;100.00;102031.03;5240497;28;20027;-73
2024/02/28 03:20:42;;;;;;;45.05;20.00;;;;;;;1.38;100.00;102028.63;5248822;28;20029;-72
2024/02/28 03:23:13;;;;;;;50.63;21.13;;;;;;;1.36;100.00;102033.13;5251664;28;20023;-72
2024/02/28 03:25:43;;;;;;;56.22;20.70;;;;;;;1.38;100.00;102038.34;5246722;28;20042;-73
2024/02/28 03:28:14;;;;;;;53.92;21.58;;;;;;;1.35;100.00;102039.34;5260225;28;20474;-73
2024/02/28 03:30:50;;;;;;;54.45;22.27;;;;;;;1.34;100.00;102036.78;5253846;28;20111;-73
2024/02/28 03:33:21;;;;;;;58.83;23.23;;;;;;;1.35;100.00;102030.56;5244010;28;20096;-73
2024/02/28 03:35:52;;;;;;;50.20;22.02;;;;;;;1.31;100.00;102037.81;5247334;28;20029;-73
2024/02/28 03:38:23;;;;;;;61.67;23.38;;;;;;;1.34;100.00;102036.78;5251677;28;20074;-72
2024/02/28 03:40:53;;;;;;;57.50;24.45;;;;;;;1.40;100.00;102036.47;5243596;28;20025;-73
2024/02/28 03:43:24;;;;;;;53.72;25.42;;;;;;;1.40;100.00;102025.88;5249655;28;20104;-73
2024/02/28 03:45:54;;;;;;;68.72;25.80;;;;;;;1.39;100.00;102025.03;5247226;28;20021;-73
2024/02/28 03:48:25;;;;;;;62.45;24.42;;;;;;;1.32;100.00;102025.44;5252831;28;20020;-73
2024/02/28 03:50:55;;;;;;;54.45;21.23;;;;;;;1.27;100.00;102023.03;5252443;28;20024;-72
2024/02/28 03:53:26;;;;;;;54.88;23.60;;;;;;;1.20;100.00;102021.59;5249924;28;20086;-73
2024/02/28 03:55:57;;;;;;;60.60;24.95;;;;;;;1.20;100.00;102025.09;5248695;28;20359;-73
2024/02/28 03:58:28;;;;;;;68.85;26.23;;;;;;;1.23;100.00;102032.88;5249531;28;20025;-72
2024/02/28 04:00:59;;;;;;;77.95;30.05;;;;;;;1.25;100.00;102032.81;5251580;28;20032;-73
2024/02/28 04:03:29;;;;;;;71.75;26.90;;;;;;;1.26;100.00;102039.81;5248384;28;20395;-72
2024/02/28 04:05:59;;;;;;;69.90;27.58;;;;;;;1.24;100.00;102036.38;5251584;28;20120;-72
2024/02/28 04:08:30;;;;;;;78.00;28.42;;;;;;;1.26;100.00;102037.19;5246636;28;20033;-73
2024/02/28 04:11:00;;;;;;;65.28;25.90;;;;;;;1.27;100.00;102031.81;5252189;28;20675;-73
2024/02/28 04:13:31;;;;;;;73.35;27.35;;;;;;;1.31;100.00;102034.31;5247931;28;20024;-73
2024/02/28 04:16:03;;;;;;;79.72;29.50;;;;;;;1.33;100.00;102035.06;5252367;28;20028;-73
2024/02/28 04:18:33;;;;;;;96.75;29.23;;;;;;;1.38;100.00;102033.06;5253144;28;20036;-73
2024/02/28 04:21:04;;;;;;;76.75;27.25;;;;;;;1.36;100.00;102032.28;5250491;28;20469;-73
2024/02/28 04:23:34;;;;;;;81.65;30.23;;;;;;;1.36;100.00;102034.94;5253061;28;20111;-73
2024/02/28 04:26:05;;;;;;;89.43;29.95;;;;;;;1.34;100.00;102032.34;5253966;28;20024;-73
2024/02/28 04:28:35;;;;;;;77.78;29.52;;;;;;;1.32;100.00;102031.56;5253259;28;20024;-73
2024/02/28 04:31:06;;;;;;;86.68;29.90;;;;;;;1.31;100.00;102036.94;5256001;28;20068;-73
2024/02/28 04:33:38;;;;;;;92.53;31.25;;;;;;;1.30;100.00;102020.22;5252412;28;20111;-73
2024/02/28 04:36:08;;;;;;;74.72;29.02;;;;;;;1.28;100.00;102022.09;5251257;28;20047;-73
2024/02/28 04:38:38;;;;;;;79.78;29.40;;;;;;;1.25;100.00;102023.09;5255260;28;20517;-73
2024/02/28 04:41:09;;;;;;;78.68;27.67;;;;;;;1.24;100.00;102028.47;5251849;28;20107;-73
2024/02/28 04:43:40;;;;;;;67.60;26.30;;;;;;;1.20;100.00;102027.75;5250533;28;20032;-73
2024/02/28 04:46:10;;;;;;;80.68;29.98;;;;;;;1.18;100.00;102026.13;5249838;28;20055;-73
2024/02/28 04:48:41;;;;;;;73.70;27.30;;;;;;;1.17;100.00;102022.63;5253336;28;20024;-73
2024/02/28 04:51:16;;;;;;;79.82;28.95;;;;;;;1.17;100.00;102017.34;5245804;28;20052;-74
2024/02/28 04:53:46;;;;;;;75.80;27.52;;;;;;;1.17;100.00;102024.41;5254937;28;20103;-74
2024/02/28 04:56:17;;;;;;;86.07;28.10;;;;;;;1.14;100.00;102022.78;5250670;28;20026;-74
2024/02/28 04:58:48;;;;;;;83.72;29.80;;;;;;;1.15;100.00;102032.41;5252651;28;20046;-74
2024/02/28 05:01:18;;;;;;;83.82;30.10;;;;;;;1.20;100.00;102034.81;5248985;28;20055;-72
2024/02/28 05:03:49;;;;;;;82.60;29.40;;;;;;;1.20;100.00;102035.69;5254548;28;20032;-74
2024/02/28 05:06:19;;;;;;;91.10;29.27;;;;;;;1.16;100.00;102043.88;5256001;28;20020;-74
2024/02/28 05:08:50;;;;;;;78.63;29.13;;;;;;;1.10;100.00;102050.28;5269840;28;20112;-74
2024/02/28 05:11:22;;;;;;;75.55;28.63;;;;;;;1.09;100.00;102050.38;5254279;28;20119;-74
2024/02/28 05:13:53;;;;;;;101.05;34.63;;;;;;;1.14;100.00;102058.94;5248331;28;20031;-74
2024/02/28 05:16:24;;;;;;;121.45;38.40;;;;;;;1.22;100.00;102067.34;5254003;28;20024;-73
2024/02/28 05:18:55;;;;;;;107.97;36.22;;;;;;;1.28;100.00;102078.47;5257112;28;20103;-74
2024/02/28 05:21:26;;;;;;;115.95;37.80;;;;;;;1.36;100.00;102071.94;5248473;28;20032;-74
2024/02/28 05:23:56;;;;;;;124.07;38.42;;;;;;;1.41;100.00;102067.28;5255126;28;20020;-74
2024/02/28 05:26:27;;;;;;;120.05;37.15;;;;;;;1.47;100.00;102070.47;5251451;28;20401;-74
2024/02/28 05:28:58;;;;;;;110.43;35.05;;;;;;;1.48;100.00;102076.59;5250204;28;20131;-74
2024/02/28 05:31:29;;;;;;;97.65;34.92;;;;;;;1.43;100.00;102062.75;5247584;28;20432;-74
2024/02/28 05:34:01;;;;;;;105.93;33.58;;;;;;;1.40;100.00;102069.03;5253017;28;20085;-74
2024/02/28 05:36:32;;;;;;;92.85;32.38;;;;;;;1.40;100.00;102068.19;5250847;28;20042;-74
2024/02/28 05:39:05;;;;;;;108.10;34.40;;;;;;;1.45;100.00;102071.47;5256216;28;20031;-72
2024/02/28 05:41:37;;;;;;;105.40;30.75;;;;;;;1.44;100.00;102067.97;5248482;28;20075;-74
2024/02/28 05:44:08;;;;;;;93.15;31.08;;;;;;;1.38;100.00;102073.56;5250769;28;20028;-73
2024/02/28 05:46:40;;;;;;;85.07;31.05;;;;;;;1.29;100.00;102069.59;5249137;28;20538;-72
2024/02/28 05:49:11;;;;;;;95.28;31.52;;;;;;;1.26;100.00;102072.41;5248442;28;20043;-74
2024/02/28 05:51:42;;;;;;;82.53;30.35;;;;;;;1.20;100.00;102069.19;5250267;28;20039;-72
2024/02/28 05:54:12;;;;;;;90.13;30.35;;;;;;;1.17;100.00;102064.94;5253601;28;20417;-74
2024/02/28 05:56:43;;;;;;;89.22;32.58;;;;;;;1.12;100.00;102066.09;5250707;28;20446;-74
2024/02/28 05:59:13;;;;;;;86.45;29.42;;;;;;;1.10;100.00;102070.56;5248995;28;20024;-73
2024/02/28 06:01:44;;;;;;;86.35;30.83;;;;;;;1.09;100.00;102063.59;5251157;28;20612;-74
2024/02/28 06:04:15;;;;;;;88.68;30.25;;;;;;;1.09;100.00;102059.16;5247204;28;20465;-74
2024/02/28 06:06:48;;;;;;;92.72;32.13;;;;;;;1.10;100.00;102066.13;5249570;28;20027;-74
2024/02/28 06:09:21;;;;;;;94.70;32.35;;;;;;;1.10;100.00;102065.28;5231817;28;20150;-73
2024/02/28 06:11:53;;;;;;;103.75;31.63;;;;;;;1.05;100.00;102068.16;5261943;28;20036;-74
2024/02/28 06:14:27;;;;;;;84.85;31.25;;;;;;;1.06;100.00;102064.59;5245555;28;20158;-72
2024/02/28 06:16:59;;;;;;;95.75;31.92;;;;;;;1.04;100.00;102062.00;5248276;28;20111;-74
2024/02/28 06:19:31;;;;;;;101.50;32.83;;;;;;;1.08;100.00;102064.53;5249428;28;20039;-74
2024/02/28 06:22:02;;;;;;;93.82;32.08;;;;;;;1.08;100.00;102073.31;5247346;28;20036;-73
2024/02/28 06:24:34;;;;;;;91.85;31.08;;;;;;;1.08;100.00;102081.22;5251826;28;20470;-74
2024/02/28 06:27:05;;;;;;;91.38;31.15;;;;;;;1.07;100.00;102082.16;5249202;28;20116;-74
2024/02/28 06:29:36;;;;;;;91.70;30.17;;;;;;;1.08;100.00;102085.66;5267193;28;20171;-74
2024/02/28 06:32:07;;;;;;;82.55;28.88;;;;;;;1.10;100.00;102092.56;5254071;28;20067;-73
2024/02/28 06:34:41;;;;;;;86.88;29.92;;;;;;;1.16;100.00;102080.88;5272446;28;20028;-73
2024/02/28 06:37:13;;;;;;;99.88;30.38;;;;;;;1.25;100.00;102081.25;5252934;28;20032;-73
2024/02/28 06:39:43;;;;;;;96.07;32.95;;;;;;;1.37;100.00;102073.66;5255499;28;20043;-74
2024/02/28 06:42:14;;;;;;;90.13;31.30;;;;;;;1.48;100.00;102085.38;5249126;28;20020;-74
2024/02/28 06:44:45;;;;;;;89.50;29.73;;;;;;;1.61;100.00;102088.28;5273283;28;20039;-74
2024/02/28 06:47:16;;;;;;;93.05;33.78;;;;;;;1.72;100.00;102091.22;5254817;28;20598;-74
2024/02/28 06:49:47;;;;;;;85.93;31.65;;;;;;;1.85;100.00;102096.72;5255559;28;20441;-74
2024/02/28 06:52:17;;;;;;;103.00;32.88;;;;;;;2.00;100.00;102101.22;5250117;28;20023;-74
2024/02/28 06:54:48;;;;;;;97.53;32.42;;;;;;;2.19;100.00;102105.56;5253523;28;20103;-74
2024/02/28 06:57:19;;;;;;;93.63;32.45;;;;;;;2.38;100.00;102113.38;5254147;28;20475;-74
2024/02/28 06:59:51;;;;;;;85.90;30.98;;;;;;;2.54;100.00;102104.50;5247207;28;20497;-73
2024/02/28 07:02:24;;;;;;;89.93;31.00;;;;;;;2.71;100.00;102114.19;5250632;28;20044;-74
2024/02/28 07:04:57;;;;;;;85.03;31.50;;;;;;;2.85;100.00;102124.00;5250524;28;20081;-72
2024/02/28 07:07:30;;;;;;;82.57;32.75;;;;;;;3.02;100.00;102126.59;5267139;28;20031;-73
2024/02/28 07:10:04;;;;;;;78.38;29.77;;;;;;;3.21;100.00;102126.38;5251939;28;20037;-74
2024/02/28 07:12:35;;;;;;;80.90;28.52;;;;;;;3.33;100.00;102125.69;5248870;28;20461;-73
2024/02/28 07:15:06;;;;;;;76.20;25.80;;;;;;;3.42;100.00;102132.28;5251198;28;20389;-74
2024/02/28 07:17:37;;;;;;;69.55;25.80;;;;;;;3.44;100.00;102142.78;5251118;28;20029;-73
2024/02/28 07:20:09;;;;;;;63.55;24.63;;;;;;;3.39;100.00;102140.41;5233094;28;20015;-73
2024/02/28 07:22:43;;;;;;;71.57;25.55;;;;;;;3.35;100.00;102137.06;5249298;28;20524;-74
2024/02/28 07:25:13;;;;;;;66.72;24.73;;;;;;;3.33;100.00;102143.41;5231332;28;20504;-74
2024/02/28 07:27:44;;;;;;;59.00;24.30;;;;;;;3.29;100.00;102142.72;5254459;28;20027;-73
2024/02/28 07:30:15;;;;;;;71.38;25.88;;;;;;;3.27;100.00;102147.28;5250000;28;20039;-74
2024/02/28 07:32:45;;;;;;;68.38;24.38;;;;;;;3.33;100.00;102141.63;5250636;28;20098;-73
2024/02/28 07:35:16;;;;;;;64.55;25.58;;;;;;;3.33;100.00;102146.06;5249200;28;20028;-74
2024/02/28 07:37:46;;;;;;;67.20;26.92;;;;;;;3.37;100.00;102152.91;5251389;28;20089;-74
2024/02/28 07:40:18;;;;;;;75.15;27.70;;;;;;;3.49;100.00;102144.22;5254876;28;20047;-72
2024/02/28 07:42:48;;;;;;;70.18;27.55;;;;;;;3.60;100.00;102148.91;5249088;28;20026;-74
2024/02/28 07:45:19;;;;;;;77.63;28.85;;;;;;;3.71;100.00;102151.78;5253097;28;20099;-74
2024/02/28 07:47:49;;;;;;;71.78;29.77;;;;;;;3.80;100.00;102161.03;5271065;28;20046;-72
2024/02/28 07:50:20;;;;;;;75.03;28.05;;;;;;;3.85;100.00;102154.50;5253720;28;20086;-73
2024/02/28 07:52:53;;;;;;;82.07;28.70;;;;;;;3.92;100.00;102152.34;5256476;28;20044;-73
2024/02/28 07:55:24;;;;;;;79.82;29.15;;;;;;;4.06;100.00;102162.13;5248867;28;20021;-74
2024/02/28 07:57:54;;;;;;;85.35;30.77;;;;;;;4.15;100.00;102162.41;5253081;28;20081;-73
2024/02/28 08:00:25;;;;;;;94.30;29.52;;;;;;;4.21;100.00;102160.34;5251717;28;20035;-74
2024/02/28 08:02:55;;;;;;;84.15;30.10;;;;;;;4.30;100.00;102160.63;5247978;28;20032;-74
2024/02/28 08:05:26;;;;;;;79.43;31.15;;;;;;;4.47;100.00;102164.06;5249018;28;20071;-74
2024/02/28 08:07:56;;;;;;;92.55;31.45;;;;;;;4.51;100.00;102170.88;5257298;28;20030;-74
2024/02/28 08:10:27;;;;;;;95.68;33.40;;;;;;;4.63;100.00;102178.13;5254785;28;20421;-74
2024/02/28 08:12:57;;;;;;;85.80;31.38;;;;;;;4.72;100.00;102169.59;5256465;28;20089;-74
2024/02/28 08:15:28;;;;;;;97.25;33.70;;;;;;;4.82;100.00;102170.72;5253099;28;20024;-73
2024/02/28 08:17:59;;;;;;;91.43;29.27;;;;;;;4.84;100.00;102178.59;5235861;28;20025;-73
2024/02/28 08:20:29;;;;;;;92.00;32.42;;;;;;;4.93;100.00;102185.97;5253467;28;20111;-74
2024/02/28 08:23:00;;;;;;;86.30;32.13;;;;;;;5.15;100.00;102186.31;5255146;28;20020;-73
2024/02/28 08:25:31;;;;;;;96.35;32.83;;;;;;;5.30;100.00;102186.28;5250743;28;20130;-74
2024/02/28 08:28:03;;;;;;;102.95;34.40;;;;;;;5.36;100.00;102186.72;5253704;28;20182;-74
2024/02/28 08:30:34;;;;;;;89.00;32.80;;;;;;;5.33;100.00;102194.06;5252899;28;20111;-74
2024/02/28 08:33:08;;;;;;;94.68;33.95;;;;;;;5.55;100.00;102190.84;5252217;28;20120;-73
2024/02/28 08:35:39;;;;;;;87.63;32.45;;;;;;;5.65;100.00;102187.47;5254725;28;20028;-74
2024/02/28 08:38:10;;;;;;;91.40;31.98;;;;;;;5.84;100.00;102192.44;5253025;28;20046;-74
2024/02/28 08:40:41;;;;;;;90.28;32.35;;;;;;;5.97;100.00;102192.47;5255771;28;20106;-74
2024/02/28 08:43:13;;;;;;;93.18;31.88;;;;;;;6.06;100.00;102193.69;5248490;28;20478;-74
2024/02/28 08:45:44;;;;;;;103.47;32.63;;;;;;;6.10;100.00;102196.03;5268287;28;20028;-74
2024/02/28 08:48:19;;;;;;;86.97;31.13;;;;;;;6.19;100.00;102198.06;5253343;28;20044;-74
2024/02/28 08:50:50;;;;;;;91.57;31.05;;;;;;;6.23;100.00;102201.41;5253373;28;20429;-74
2024/02/28 08:53:25;;;;;;;92.30;30.55;;;;;;;6.23;100.00;102196.91;5252141;28;20087;-74
2024/02/28 08:55:57;;;;;;;79.05;28.63;;;;;;;6.37;100.00;102206.59;5249489;28;20035;-73
2024/02/28 08:58:29;;;;;;;84.28;29.95;;;;;;;6.34;100.00;102211.31;5269535;28;20394;-74
2024/02/28 09:01:02;;;;;;;77.72;27.98;;;;;;;6.28;100.00;102206.41;5249047;28;20028;-74
2024/02/28 09:03:35;;;;;;;85.70;30.35;;;;;;;6.17;100.00;102204.44;5248184;28;20020;-74
2024/02/28 09:06:08;;;;;;;82.43;28.98;;;;;;;6.18;100.00;102201.72;5248882;28;20031;-74
2024/02/28 09:08:40;;;;;;;68.28;27.63;;;;;;;6.36;100.00;102202.25;5252840;28;20040;-73
2024/02/28 09:11:12;;;;;;;91.05;27.98;;;;;;;6.37;100.00;102197.75;5254262;28;20748;-74
2024/02/28 09:13:44;;;;;;;84.07;27.27;;;;;;;6.44;100.00;102199.06;5253430;28;20424;-74
2024/02/28 09:16:17;;;;;;;80.15;26.15;;;;;;;6.60;100.00;102209.50;5253566;28;20036;-73
2024/02/28 09:18:50;;;;;;;72.28;27.48;;;;;;;6.78;100.00;102208.22;5251881;28;20032;-74
2024/02/28 09:21:23;;;;;;;91.05;26.45;;;;;;;6.72;100.00;102201.47;5253273;28;20063;-74
2024/02/28 09:23:54;;;;;;;70.85;25.33;;;;;;;6.80;100.00;102200.94;5276250;28;20062;-74
2024/02/28 09:26:26;;;;;;;71.13;25.77;;;;;;;7.04;100.00;102200.16;5263197;28;20123;-75
2024/02/28 09:29:07;;;;;;;75.22;25.48;;;;;;;7.20;100.00;102204.28;5274115;28;20046;-74
2024/02/28 09:31:40;;;;;;;72.63;27.20;;;;;;;7.34;100.00;102205.09;5247446;28;20621;-74
2024/02/28 09:34:10;;;;;;;68.72;24.88;;;;;;;7.48;100.00;102208.47;5267035;28;20046;-74
2024/02/28 09:36:45;;;;;;;65.47;23.85;;;;;;;7.39;100.00;102208.28;5276459;28;20043;-74
2024/02/28 09:39:15;;;;;;;78.77;23.97;;;;;;;7.24;100.00;102204.91;5267843;28;20027;-75
2024/02/28 09:41:49;;;;;;;68.43;24.88;;;;;;;7.20;100.00;102212.28;5267445;28;20279;-75
2024/02/28 09:44:20;;;;;;;69.05;23.38;;;;;;;7.16;100.00;102216.13;5269653;28;20024;-74
2024/02/28 09:46:51;;;;;;;66.38;24.33;;;;;;;7.17;100.00;102208.97;5270158;28;20027;-79
2024/02/28 09:49:24;;;;;;;65.93;23.38;;;;;;;7.21;100.00;102202.47;5269034;28;20040;-77
2024/02/28 09:51:56;;;;;;;68.65;24.10;;;;;;;7.23;100.00;102206.75;5266068;28;20031;-75
2024/02/28 09:54:27;;;;;;;64.60;23.27;;;;;;;7.25;100.00;102199.47;5267533;28;20089;-74
2024/02/28 09:56:58;;;;;;;66.95;25.00;;;;;;;7.43;100.00;102202.63;5269639;28;20031;-78
2024/02/28 09:59:29;;;;;;;78.97;22.27;;;;;;;7.40;100.00;102199.31;5250133;28;20032;-75
2024/02/28 10:02:01;;;;;;;57.70;21.80;;;;;;;7.23;100.00;102205.88;5268831;28;20037;-74
2024/02/28 10:04:33;;;;;;;71.75;21.95;;;;;;;7.31;100.00;102206.16;5263234;28;20040;-74
2024/02/28 10:07:13;;;;;;;76.22;23.67;;;;;;;7.37;100.00;102205.72;5252036;28;20410;-75
2024/02/28 10:09:43;;;;;;;64.68;22.45;;;;;;;7.48;100.00;102210.25;5253986;28;20052;-74
2024/02/28 10:12:14;;;;;;;70.00;22.15;;;;;;;7.53;100.00;102208.13;5251098;28;20497;-76
2024/02/28 10:14:45;;;;;;;59.95;21.20;;;;;;;7.55;100.00;102200.84;5253183;28;20063;-75
2024/02/28 10:17:15;;;;;;;66.10;22.50;;;;;;;7.52;100.00;102201.91;5246922;28;20032;-74
2024/02/28 10:19:47;;;;;;;64.47;22.02;;;;;;;7.61;100.00;102207.53;5254980;28;20032;-74
2024/02/28 10:22:17;;;;;;;59.75;20.75;;;;;;;7.45;100.00;102205.16;5252003;28;20024;-74
2024/02/28 10:24:48;;;;;;;60.78;20.92;;;;;;;7.34;100.00;102205.09;5252783;28;20469;-74
2024/02/28 10:27:19;;;;;;;63.72;21.90;;;;;;;7.20;100.00;102201.63;5251838;28;20028;-74
2024/02/28 10:29:49;;;;;;;61.22;22.17;;;;;;;7.22;100.00;102204.16;5253994;28;20032;-75
2024/02/28 10:32:20;;;;;;;62.47;22.08;;;;;;;7.20;100.00;102198.09;5252261;28;20031;-74
2024/02/28 10:34:51;;;;;;;59.67;22.20;;;;;;;7.32;100.00;102191.84;5248183;28;20024;-76
2024/02/28 10:37:22;;;;;;;61.33;21.20;;;;;;;7.56;100.00;102180.31;5250956;28;20111;-74
2024/02/28 10:39:55;;;;;;;71.18;21.35;;;;;;;7.69;100.00;102179.31;5252097;28;20157;-74
2024/02/28 10:42:28;;;;;;;60.90;21.83;;;;;;;7.91;100.00;102189.22;5249662;28;20036;-75
2024/02/28 10:44:59;;;;;;;65.15;20.55;;;;;;;8.15;100.00;102188.31;5254739;28;20016;-75
2024/02/28 10:47:30;;;;;;;59.90;21.05;;;;;;;8.40;100.00;102185.47;5249424;28;20055;-75
2024/02/28 10:50:01;;;;;;;62.67;19.48;;;;;;;8.20;100.00;102186.16;5253913;28;20061;-78
2024/02/28 10:52:33;;;;;;;59.40;20.58;;;;;;;8.26;100.00;102191.88;5248140;28;20029;-75
2024/02/28 10:55:08;;;;;;;55.45;20.15;;;;;;;8.33;100.00;102181.53;5251914;28;20477;-75
2024/02/28 10:57:40;;;;;;;53.50;18.10;;;;;;;8.39;100.00;102186.47;5252667;28;20081;-75
2024/02/28 11:00:13;;;;;;;56.38;19.92;;;;;;;8.52;100.00;102176.50;5249904;28;20020;-77
2024/02/28 11:02:44;;;;;;;48.72;18.13;;;;;;;8.57;100.00;102170.78;5250880;28;20115;-75
2024/02/28 11:05:15;;;;;;;52.08;20.23;;;;;;;8.68;100.00;102181.47;5247109;28;20024;-75
2024/02/28 11:07:45;;;;;;;56.42;19.88;;;;;;;8.63;100.00;102175.63;5252387;28;20512;-76
2024/02/28 11:10:16;;;;;;;56.60;19.88;;;;;;;8.82;100.00;102186.59;5245474;28;20033;-75
2024/02/28 11:12:54;;;;;;;47.67;18.42;;;;;;;9.06;100.00;102189.13;5250018;28;20032;-75
2024/02/28 11:15:27;;;;;;;49.10;17.75;;;;;;;9.18;100.00;102179.25;5239900;28;20033;-75
2024/02/28 11:18:09;;;;;;;47.25;18.35;;;;;;;9.32;100.00;102168.25;5247475;28;20027;-77
2024/02/28 11:20:39;;;;;;;46.13;15.23;;;;;;;9.54;100.00;102171.88;5243876;28;20623;-77
2024/02/28 11:23:10;;;;;;;42.47;15.48;;;;;;;9.64;100.00;102174.59;5255473;28;20028;-76
2024/02/28 11:25:41;;;;;;;46.08;14.88;;;;;;;9.67;100.00;102175.22;5255251;28;20047;-75
2024/02/28 11:28:11;;;;;;;41.17;14.85;;;;;;;9.51;100.00;102174.78;5252333;28;20046;-78